sensor_id;sensor_type;location;lat;lon;timestamp;P1;durP1;ratioP1;P2;durP2;ratioP2
4021;SDS011;2025;48.260;16.432;2022-07-17T00:01:38;4.00;;;2.13;;
4021;SDS011;2025;48.260;16.432;2022-07-17T00:04:05;4.10;;;2.40;;
4021;SDS011;2025;48.260;16.432;2022-07-17T00:06:33;5.68;;;1.85;;
4021;SDS011;2025;48.260;16.432;2022-07-17T00:09:00;1.83;;;1.70;;
4021;SDS011;2025;48.260;16.432;2022-07-17T00:11:27;2.75;;;2.10;;
4021;SDS011;2025;48.260;16.432;2022-07-17T00:13:54;2.22;;;1.90;;
4021;SDS011;2025;48.260;16.432;2022-07-17T00:16:21;2.47;;;2.03;;
4021;SDS011;2025;48.260;16.432;2022-07-17T00:18:48;4.88;;;2.10;;
4021;SDS011;2025;48.260;16.432;2022-07-17T00:21:15;7.38;;;2.28;;
4021;SDS011;2025;48.260;16.432;2022-07-17T00:23:44;3.75;;;1.83;;
4021;SDS011;2025;48.260;16.432;2022-07-17T00:26:11;1.65;;;1.55;;
4021;SDS011;2025;48.260;16.432;2022-07-17T00:28:38;1.85;;;1.75;;
4021;SDS011;2025;48.260;16.432;2022-07-17T00:31:05;2.95;;;1.70;;
4021;SDS011;2025;48.260;16.432;2022-07-17T00:33:32;7.95;;;2.08;;
4021;SDS011;2025;48.260;16.432;2022-07-17T00:35:59;2.97;;;1.70;;
4021;SDS011;2025;48.260;16.432;2022-07-17T00:38:26;4.55;;;1.90;;
4021;SDS011;2025;48.260;16.432;2022-07-17T00:40:55;1.90;;;1.80;;
4021;SDS011;2025;48.260;16.432;2022-07-17T00:43:23;2.47;;;1.77;;
4021;SDS011;2025;48.260;16.432;2022-07-17T00:45:57;1.80;;;1.70;;
4021;SDS011;2025;48.260;16.432;2022-07-17T00:48:25;2.17;;;1.60;;
4021;SDS011;2025;48.260;16.432;2022-07-17T00:50:52;1.70;;;1.60;;
4021;SDS011;2025;48.260;16.432;2022-07-17T00:53:19;2.33;;;1.58;;
4021;SDS011;2025;48.260;16.432;2022-07-17T00:55:47;1.88;;;1.55;;
4021;SDS011;2025;48.260;16.432;2022-07-17T00:58:19;1.92;;;1.52;;
4021;SDS011;2025;48.260;16.432;2022-07-17T01:00:47;3.47;;;1.70;;
4021;SDS011;2025;48.260;16.432;2022-07-17T01:03:16;2.50;;;1.48;;
4021;SDS011;2025;48.260;16.432;2022-07-17T01:05:45;1.67;;;1.42;;
4021;SDS011;2025;48.260;16.432;2022-07-17T01:08:12;4.63;;;1.33;;
4021;SDS011;2025;48.260;16.432;2022-07-17T01:10:39;1.77;;;1.60;;
4021;SDS011;2025;48.260;16.432;2022-07-17T01:13:06;5.20;;;1.90;;
4021;SDS011;2025;48.260;16.432;2022-07-17T01:15:37;1.67;;;1.55;;
4021;SDS011;2025;48.260;16.432;2022-07-17T01:18:05;1.40;;;1.40;;
4021;SDS011;2025;48.260;16.432;2022-07-17T01:20:34;1.75;;;1.65;;
4021;SDS011;2025;48.260;16.432;2022-07-17T01:23:03;1.63;;;1.52;;
4021;SDS011;2025;48.260;16.432;2022-07-17T01:25:30;1.90;;;1.70;;
4021;SDS011;2025;48.260;16.432;2022-07-17T01:27:58;2.25;;;1.40;;
4021;SDS011;2025;48.260;16.432;2022-07-17T01:30:26;4.70;;;1.60;;
4021;SDS011;2025;48.260;16.432;2022-07-17T01:32:53;1.50;;;1.40;;
4021;SDS011;2025;48.260;16.432;2022-07-17T01:35:20;3.28;;;1.80;;
4021;SDS011;2025;48.260;16.432;2022-07-17T01:37:47;1.48;;;1.38;;
4021;SDS011;2025;48.260;16.432;2022-07-17T01:40:16;1.90;;;1.80;;
4021;SDS011;2025;48.260;16.432;2022-07-17T01:42:44;2.28;;;1.60;;
4021;SDS011;2025;48.260;16.432;2022-07-17T01:45:13;1.70;;;1.50;;
4021;SDS011;2025;48.260;16.432;2022-07-17T01:47:42;2.05;;;1.60;;
4021;SDS011;2025;48.260;16.432;2022-07-17T01:50:09;1.50;;;1.40;;
4021;SDS011;2025;48.260;16.432;2022-07-17T01:52:38;2.72;;;1.70;;
4021;SDS011;2025;48.260;16.432;2022-07-17T01:55:06;5.90;;;1.50;;
4021;SDS011;2025;48.260;16.432;2022-07-17T01:57:37;2.85;;;1.67;;
4021;SDS011;2025;48.260;16.432;2022-07-17T02:00:05;3.75;;;1.80;;
4021;SDS011;2025;48.260;16.432;2022-07-17T02:02:34;3.28;;;1.58;;
4021;SDS011;2025;48.260;16.432;2022-07-17T02:05:02;2.30;;;1.67;;
4021;SDS011;2025;48.260;16.432;2022-07-17T02:07:30;3.20;;;1.77;;
4021;SDS011;2025;48.260;16.432;2022-07-17T02:09:58;2.97;;;1.73;;
4021;SDS011;2025;48.260;16.432;2022-07-17T02:12:25;1.60;;;1.50;;
4021;SDS011;2025;48.260;16.432;2022-07-17T02:14:53;2.00;;;1.73;;
4021;SDS011;2025;48.260;16.432;2022-07-17T02:17:20;2.58;;;1.55;;
4021;SDS011;2025;48.260;16.432;2022-07-17T02:19:47;1.90;;;1.80;;
4021;SDS011;2025;48.260;16.432;2022-07-17T02:22:14;1.98;;;1.88;;
4021;SDS011;2025;48.260;16.432;2022-07-17T02:24:41;2.25;;;1.70;;
4021;SDS011;2025;48.260;16.432;2022-07-17T02:27:08;2.13;;;1.90;;
4021;SDS011;2025;48.260;16.432;2022-07-17T02:29:35;2.45;;;1.50;;
4021;SDS011;2025;48.260;16.432;2022-07-17T02:32:04;2.28;;;1.60;;
4021;SDS011;2025;48.260;16.432;2022-07-17T02:34:31;1.98;;;1.88;;
4021;SDS011;2025;48.260;16.432;2022-07-17T02:36:58;2.97;;;1.65;;
4021;SDS011;2025;48.260;16.432;2022-07-17T02:39:25;8.10;;;1.80;;
4021;SDS011;2025;48.260;16.432;2022-07-17T02:41:52;2.20;;;1.80;;
4021;SDS011;2025;48.260;16.432;2022-07-17T02:44:19;1.67;;;1.58;;
4021;SDS011;2025;48.260;16.432;2022-07-17T02:46:46;2.00;;;1.80;;
4021;SDS011;2025;48.260;16.432;2022-07-17T02:49:17;5.72;;;1.67;;
4021;SDS011;2025;48.260;16.432;2022-07-17T02:51:46;1.52;;;1.48;;
4021;SDS011;2025;48.260;16.432;2022-07-17T02:54:12;2.97;;;1.75;;
4021;SDS011;2025;48.260;16.432;2022-07-17T02:56:39;3.20;;;1.70;;
4021;SDS011;2025;48.260;16.432;2022-07-17T02:59:06;4.10;;;1.75;;
4021;SDS011;2025;48.260;16.432;2022-07-17T03:01:33;2.05;;;1.73;;
4021;SDS011;2025;48.260;16.432;2022-07-17T03:04:00;5.63;;;2.08;;
4021;SDS011;2025;48.260;16.432;2022-07-17T03:06:29;2.75;;;2.17;;
4021;SDS011;2025;48.260;16.432;2022-07-17T03:08:56;4.57;;;1.80;;
4021;SDS011;2025;48.260;16.432;2022-07-17T03:11:23;4.82;;;1.83;;
4021;SDS011;2025;48.260;16.432;2022-07-17T03:13:49;4.50;;;1.90;;
4021;SDS011;2025;48.260;16.432;2022-07-17T03:16:16;2.03;;;1.92;;
4021;SDS011;2025;48.260;16.432;2022-07-17T03:18:43;1.63;;;1.52;;
4021;SDS011;2025;48.260;16.432;2022-07-17T03:21:10;4.38;;;1.88;;
4021;SDS011;2025;48.260;16.432;2022-07-17T03:23:39;2.13;;;1.92;;
4021;SDS011;2025;48.260;16.432;2022-07-17T03:26:05;1.90;;;1.77;;
4021;SDS011;2025;48.260;16.432;2022-07-17T03:28:32;2.35;;;1.73;;
4021;SDS011;2025;48.260;16.432;2022-07-17T03:30:59;6.03;;;2.25;;
4021;SDS011;2025;48.260;16.432;2022-07-17T03:33:26;2.28;;;2.17;;
4021;SDS011;2025;48.260;16.432;2022-07-17T03:35:53;2.35;;;2.00;;
4021;SDS011;2025;48.260;16.432;2022-07-17T03:38:21;4.93;;;2.30;;
4021;SDS011;2025;48.260;16.432;2022-07-17T03:40:49;2.90;;;2.40;;
4021;SDS011;2025;48.260;16.432;2022-07-17T03:43:16;2.13;;;1.92;;
4021;SDS011;2025;48.260;16.432;2022-07-17T03:45:44;5.68;;;2.30;;
4021;SDS011;2025;48.260;16.432;2022-07-17T03:48:10;6.95;;;3.05;;
4021;SDS011;2025;48.260;16.432;2022-07-17T03:50:37;4.75;;;1.88;;
4021;SDS011;2025;48.260;16.432;2022-07-17T03:53:04;5.43;;;2.40;;
4021;SDS011;2025;48.260;16.432;2022-07-17T03:55:31;2.95;;;2.20;;
4021;SDS011;2025;48.260;16.432;2022-07-17T03:58:00;3.58;;;2.20;;
4021;SDS011;2025;48.260;16.432;2022-07-17T04:00:27;2.83;;;2.10;;
4021;SDS011;2025;48.260;16.432;2022-07-17T04:02:54;2.42;;;2.25;;
4021;SDS011;2025;48.260;16.432;2022-07-17T04:05:21;3.40;;;2.25;;
4021;SDS011;2025;48.260;16.432;2022-07-17T04:07:48;2.60;;;2.40;;
4021;SDS011;2025;48.260;16.432;2022-07-17T04:10:15;2.30;;;2.10;;
4021;SDS011;2025;48.260;16.432;2022-07-17T04:12:42;2.08;;;1.98;;
4021;SDS011;2025;48.260;16.432;2022-07-17T04:15:11;2.28;;;2.17;;
4021;SDS011;2025;48.260;16.432;2022-07-17T04:17:38;5.05;;;1.98;;
4021;SDS011;2025;48.260;16.432;2022-07-17T04:20:05;3.92;;;2.13;;
4021;SDS011;2025;48.260;16.432;2022-07-17T04:22:33;2.35;;;1.95;;
4021;SDS011;2025;48.260;16.432;2022-07-17T04:25:00;3.47;;;1.90;;
4021;SDS011;2025;48.260;16.432;2022-07-17T04:27:27;2.70;;;1.92;;
4021;SDS011;2025;48.260;16.432;2022-07-17T04:29:54;3.50;;;1.75;;
4021;SDS011;2025;48.260;16.432;2022-07-17T04:32:22;3.65;;;1.90;;
4021;SDS011;2025;48.260;16.432;2022-07-17T04:34:49;5.15;;;1.80;;
4021;SDS011;2025;48.260;16.432;2022-07-17T04:37:16;2.75;;;2.10;;
4021;SDS011;2025;48.260;16.432;2022-07-17T04:39:43;3.63;;;2.00;;
4021;SDS011;2025;48.260;16.432;2022-07-17T04:42:10;3.85;;;1.85;;
4021;SDS011;2025;48.260;16.432;2022-07-17T04:44:37;1.90;;;1.80;;
4021;SDS011;2025;48.260;16.432;2022-07-17T04:47:04;2.38;;;2.17;;
4021;SDS011;2025;48.260;16.432;2022-07-17T04:49:32;3.63;;;2.13;;
4021;SDS011;2025;48.260;16.432;2022-07-17T04:51:59;3.08;;;1.77;;
4021;SDS011;2025;48.260;16.432;2022-07-17T04:54:26;2.85;;;1.70;;
4021;SDS011;2025;48.260;16.432;2022-07-17T04:56:53;2.85;;;1.75;;
4021;SDS011;2025;48.260;16.432;2022-07-17T04:59:20;5.82;;;1.60;;
4021;SDS011;2025;48.260;16.432;2022-07-17T05:01:47;1.85;;;1.75;;
4021;SDS011;2025;48.260;16.432;2022-07-17T05:04:14;6.10;;;1.90;;
4021;SDS011;2025;48.260;16.432;2022-07-17T05:06:42;3.28;;;1.80;;
4021;SDS011;2025;48.260;16.432;2022-07-17T05:09:09;9.25;;;2.08;;
4021;SDS011;2025;48.260;16.432;2022-07-17T05:11:36;3.33;;;1.88;;
4021;SDS011;2025;48.260;16.432;2022-07-17T05:14:03;6.43;;;1.83;;
4021;SDS011;2025;48.260;16.432;2022-07-17T05:16:30;5.65;;;1.40;;
4021;SDS011;2025;48.260;16.432;2022-07-17T05:18:57;7.47;;;2.28;;
4021;SDS011;2025;48.260;16.432;2022-07-17T05:21:24;2.78;;;1.58;;
4021;SDS011;2025;48.260;16.432;2022-07-17T05:23:53;4.10;;;1.67;;
4021;SDS011;2025;48.260;16.432;2022-07-17T05:26:20;4.20;;;1.80;;
4021;SDS011;2025;48.260;16.432;2022-07-17T05:28:48;1.70;;;1.60;;
4021;SDS011;2025;48.260;16.432;2022-07-17T05:31:14;3.42;;;1.45;;
4021;SDS011;2025;48.260;16.432;2022-07-17T05:33:41;3.42;;;1.83;;
4021;SDS011;2025;48.260;16.432;2022-07-17T05:36:08;3.40;;;1.38;;
4021;SDS011;2025;48.260;16.432;2022-07-17T05:38:35;4.75;;;1.45;;
4021;SDS011;2025;48.260;16.432;2022-07-17T05:41:04;1.58;;;1.48;;
4021;SDS011;2025;48.260;16.432;2022-07-17T05:43:31;1.60;;;1.50;;
4021;SDS011;2025;48.260;16.432;2022-07-17T05:45:58;4.53;;;1.50;;
4021;SDS011;2025;48.260;16.432;2022-07-17T05:48:25;3.67;;;1.30;;
4021;SDS011;2025;48.260;16.432;2022-07-17T05:50:53;4.97;;;1.58;;
4021;SDS011;2025;48.260;16.432;2022-07-17T05:53:20;4.57;;;1.80;;
4021;SDS011;2025;48.260;16.432;2022-07-17T05:55:47;2.08;;;1.50;;
4021;SDS011;2025;48.260;16.432;2022-07-17T05:58:16;1.80;;;1.17;;
4021;SDS011;2025;48.260;16.432;2022-07-17T06:00:43;6.47;;;1.52;;
4021;SDS011;2025;48.260;16.432;2022-07-17T06:03:11;3.38;;;1.25;;
4021;SDS011;2025;48.260;16.432;2022-07-17T06:05:38;3.50;;;1.35;;
4021;SDS011;2025;48.260;16.432;2022-07-17T06:08:05;4.82;;;1.40;;
4021;SDS011;2025;48.260;16.432;2022-07-17T06:10:32;3.55;;;1.33;;
4021;SDS011;2025;48.260;16.432;2022-07-17T06:12:59;1.20;;;1.10;;
4021;SDS011;2025;48.260;16.432;2022-07-17T06:15:27;2.05;;;1.20;;
4021;SDS011;2025;48.260;16.432;2022-07-17T06:17:54;4.45;;;1.23;;
4021;SDS011;2025;48.260;16.432;2022-07-17T06:20:21;1.45;;;1.27;;
4021;SDS011;2025;48.260;16.432;2022-07-17T06:22:48;1.52;;;1.20;;
4021;SDS011;2025;48.260;16.432;2022-07-17T06:25:15;2.75;;;1.33;;
4021;SDS011;2025;48.260;16.432;2022-07-17T06:27:42;1.30;;;1.20;;
4021;SDS011;2025;48.260;16.432;2022-07-17T06:30:10;9.95;;;1.40;;
4021;SDS011;2025;48.260;16.432;2022-07-17T06:32:40;3.45;;;1.33;;
4021;SDS011;2025;48.260;16.432;2022-07-17T06:35:09;4.88;;;1.20;;
4021;SDS011;2025;48.260;16.432;2022-07-17T06:37:36;2.25;;;1.25;;
4021;SDS011;2025;48.260;16.432;2022-07-17T06:40:04;2.85;;;1.17;;
4021;SDS011;2025;48.260;16.432;2022-07-17T06:42:32;3.67;;;1.20;;
4021;SDS011;2025;48.260;16.432;2022-07-17T06:44:59;1.40;;;1.25;;
4021;SDS011;2025;48.260;16.432;2022-07-17T06:47:26;1.40;;;1.30;;
4021;SDS011;2025;48.260;16.432;2022-07-17T06:49:54;3.03;;;1.23;;
4021;SDS011;2025;48.260;16.432;2022-07-17T06:52:21;3.33;;;1.08;;
4021;SDS011;2025;48.260;16.432;2022-07-17T06:54:48;1.48;;;1.23;;
4021;SDS011;2025;48.260;16.432;2022-07-17T06:57:15;3.00;;;1.15;;
4021;SDS011;2025;48.260;16.432;2022-07-17T06:59:42;1.92;;;1.20;;
4021;SDS011;2025;48.260;16.432;2022-07-17T07:02:09;1.08;;;1.02;;
4021;SDS011;2025;48.260;16.432;2022-07-17T07:04:36;1.00;;;1.00;;
4021;SDS011;2025;48.260;16.432;2022-07-17T07:07:04;3.13;;;1.25;;
4021;SDS011;2025;48.260;16.432;2022-07-17T07:09:31;1.00;;;1.00;;
4021;SDS011;2025;48.260;16.432;2022-07-17T07:11:59;2.65;;;1.05;;
4021;SDS011;2025;48.260;16.432;2022-07-17T07:14:25;4.15;;;1.10;;
4021;SDS011;2025;48.260;16.432;2022-07-17T07:16:52;2.30;;;1.00;;
4021;SDS011;2025;48.260;16.432;2022-07-17T07:19:19;4.82;;;0.90;;
4021;SDS011;2025;48.260;16.432;2022-07-17T07:21:46;3.47;;;1.05;;
4021;SDS011;2025;48.260;16.432;2022-07-17T07:24:15;1.42;;;1.10;;
4021;SDS011;2025;48.260;16.432;2022-07-17T07:26:41;1.58;;;1.10;;
4021;SDS011;2025;48.260;16.432;2022-07-17T07:29:08;2.30;;;1.10;;
4021;SDS011;2025;48.260;16.432;2022-07-17T07:31:35;6.10;;;1.45;;
4021;SDS011;2025;48.260;16.432;2022-07-17T07:34:02;1.33;;;1.00;;
4021;SDS011;2025;48.260;16.432;2022-07-17T07:36:29;4.45;;;1.42;;
4021;SDS011;2025;48.260;16.432;2022-07-17T07:38:56;3.88;;;1.10;;
4021;SDS011;2025;48.260;16.432;2022-07-17T07:41:25;2.13;;;0.90;;
4021;SDS011;2025;48.260;16.432;2022-07-17T07:43:52;1.70;;;1.13;;
4021;SDS011;2025;48.260;16.432;2022-07-17T07:46:18;3.10;;;1.10;;
4021;SDS011;2025;48.260;16.432;2022-07-17T07:48:46;3.42;;;1.13;;
4021;SDS011;2025;48.260;16.432;2022-07-17T07:51:13;1.85;;;1.52;;
4021;SDS011;2025;48.260;16.432;2022-07-17T07:53:40;5.38;;;1.00;;
4021;SDS011;2025;48.260;16.432;2022-07-17T07:56:06;6.28;;;1.02;;
4021;SDS011;2025;48.260;16.432;2022-07-17T07:58:36;3.00;;;1.00;;
4021;SDS011;2025;48.260;16.432;2022-07-17T08:01:03;9.52;;;0.77;;
4021;SDS011;2025;48.260;16.432;2022-07-17T08:03:30;3.00;;;0.90;;
4021;SDS011;2025;48.260;16.432;2022-07-17T08:05:57;4.65;;;1.17;;
4021;SDS011;2025;48.260;16.432;2022-07-17T08:08:24;2.05;;;0.73;;
4021;SDS011;2025;48.260;16.432;2022-07-17T08:10:51;1.42;;;0.90;;
4021;SDS011;2025;48.260;16.432;2022-07-17T08:13:18;3.28;;;0.98;;
4021;SDS011;2025;48.260;16.432;2022-07-17T08:15:47;3.28;;;1.00;;
4021;SDS011;2025;48.260;16.432;2022-07-17T08:18:14;4.85;;;0.85;;
4021;SDS011;2025;48.260;16.432;2022-07-17T08:20:41;4.65;;;0.80;;
4021;SDS011;2025;48.260;16.432;2022-07-17T08:23:08;5.03;;;1.05;;
4021;SDS011;2025;48.260;16.432;2022-07-17T08:25:35;1.83;;;1.08;;
4021;SDS011;2025;48.260;16.432;2022-07-17T08:28:02;6.28;;;1.00;;
4021;SDS011;2025;48.260;16.432;2022-07-17T08:30:30;3.30;;;0.93;;
4021;SDS011;2025;48.260;16.432;2022-07-17T08:33:01;3.92;;;1.10;;
4021;SDS011;2025;48.260;16.432;2022-07-17T08:35:28;2.15;;;1.00;;
4021;SDS011;2025;48.260;16.432;2022-07-17T08:37:55;3.03;;;0.90;;
4021;SDS011;2025;48.260;16.432;2022-07-17T08:40:24;1.70;;;0.80;;
4021;SDS011;2025;48.260;16.432;2022-07-17T08:42:52;5.05;;;1.17;;
4021;SDS011;2025;48.260;16.432;2022-07-17T08:45:20;2.85;;;0.75;;
4021;SDS011;2025;48.260;16.432;2022-07-17T08:47:48;8.52;;;1.30;;
4021;SDS011;2025;48.260;16.432;2022-07-17T08:50:22;3.50;;;0.70;;
4021;SDS011;2025;48.260;16.432;2022-07-17T08:52:51;3.72;;;0.85;;
4021;SDS011;2025;48.260;16.432;2022-07-17T08:55:18;2.00;;;0.82;;
4021;SDS011;2025;48.260;16.432;2022-07-17T08:57:46;2.67;;;0.98;;
4021;SDS011;2025;48.260;16.432;2022-07-17T09:00:14;1.33;;;1.00;;
4021;SDS011;2025;48.260;16.432;2022-07-17T09:02:52;2.53;;;0.83;;
4021;SDS011;2025;48.260;16.432;2022-07-17T09:05:22;2.90;;;1.25;;
4021;SDS011;2025;48.260;16.432;2022-07-17T09:07:50;1.25;;;1.10;;
4021;SDS011;2025;48.260;16.432;2022-07-17T09:10:17;7.45;;;0.90;;
4021;SDS011;2025;48.260;16.432;2022-07-17T09:12:44;2.70;;;0.80;;
4021;SDS011;2025;48.260;16.432;2022-07-17T09:15:15;2.67;;;0.93;;
4021;SDS011;2025;48.260;16.432;2022-07-17T09:17:47;7.32;;;1.15;;
4021;SDS011;2025;48.260;16.432;2022-07-17T09:20:15;0.88;;;0.80;;
4021;SDS011;2025;48.260;16.432;2022-07-17T09:22:43;2.50;;;1.08;;
4021;SDS011;2025;48.260;16.432;2022-07-17T09:25:10;4.85;;;1.10;;
4021;SDS011;2025;48.260;16.432;2022-07-17T09:27:38;1.17;;;0.80;;
4021;SDS011;2025;48.260;16.432;2022-07-17T09:30:06;0.85;;;0.85;;
4021;SDS011;2025;48.260;16.432;2022-07-17T09:32:37;0.97;;;0.70;;
4021;SDS011;2025;48.260;16.432;2022-07-17T09:35:06;1.27;;;0.93;;
4021;SDS011;2025;48.260;16.432;2022-07-17T09:37:35;3.13;;;0.90;;
4021;SDS011;2025;48.260;16.432;2022-07-17T09:40:09;3.03;;;0.90;;
4021;SDS011;2025;48.260;16.432;2022-07-17T09:42:57;2.58;;;0.90;;
4021;SDS011;2025;48.260;16.432;2022-07-17T09:45:24;1.83;;;0.80;;
4021;SDS011;2025;48.260;16.432;2022-07-17T09:47:51;4.65;;;1.27;;
4021;SDS011;2025;48.260;16.432;2022-07-17T09:50:19;4.93;;;1.08;;
4021;SDS011;2025;48.260;16.432;2022-07-17T09:52:46;7.40;;;1.08;;
4021;SDS011;2025;48.260;16.432;2022-07-17T09:55:21;1.10;;;1.00;;
4021;SDS011;2025;48.260;16.432;2022-07-17T09:57:53;1.63;;;0.90;;
4021;SDS011;2025;48.260;16.432;2022-07-17T10:00:21;7.00;;;1.73;;
4021;SDS011;2025;48.260;16.432;2022-07-17T10:02:49;1.98;;;1.08;;
4021;SDS011;2025;48.260;16.432;2022-07-17T10:05:16;1.60;;;0.82;;
4021;SDS011;2025;48.260;16.432;2022-07-17T10:07:43;6.43;;;0.90;;
4021;SDS011;2025;48.260;16.432;2022-07-17T10:10:12;1.10;;;0.95;;
4021;SDS011;2025;48.260;16.432;2022-07-17T10:12:42;1.40;;;0.95;;
4021;SDS011;2025;48.260;16.432;2022-07-17T10:15:11;4.22;;;1.13;;
4021;SDS011;2025;48.260;16.432;2022-07-17T10:17:38;1.52;;;0.90;;
4021;SDS011;2025;48.260;16.432;2022-07-17T10:20:06;1.60;;;1.17;;
4021;SDS011;2025;48.260;16.432;2022-07-17T10:22:40;2.00;;;0.90;;
4021;SDS011;2025;48.260;16.432;2022-07-17T10:25:11;2.13;;;0.82;;
4021;SDS011;2025;48.260;16.432;2022-07-17T10:27:45;2.30;;;1.00;;
4021;SDS011;2025;48.260;16.432;2022-07-17T10:30:13;1.77;;;0.93;;
4021;SDS011;2025;48.260;16.432;2022-07-17T10:32:52;1.27;;;0.90;;
4021;SDS011;2025;48.260;16.432;2022-07-17T10:35:39;5.68;;;0.80;;
4021;SDS011;2025;48.260;16.432;2022-07-17T10:38:10;5.72;;;1.13;;
4021;SDS011;2025;48.260;16.432;2022-07-17T10:40:38;2.17;;;1.00;;
4021;SDS011;2025;48.260;16.432;2022-07-17T10:43:08;4.25;;;1.00;;
4021;SDS011;2025;48.260;16.432;2022-07-17T10:45:36;4.78;;;1.00;;
4021;SDS011;2025;48.260;16.432;2022-07-17T10:48:05;6.72;;;0.90;;
4021;SDS011;2025;48.260;16.432;2022-07-17T10:50:34;9.60;;;1.00;;
4021;SDS011;2025;48.260;16.432;2022-07-17T10:53:07;4.07;;;0.70;;
4021;SDS011;2025;48.260;16.432;2022-07-17T10:55:38;1.00;;;0.80;;
4021;SDS011;2025;48.260;16.432;2022-07-17T10:58:15;1.75;;;0.90;;
4021;SDS011;2025;48.260;16.432;2022-07-17T11:00:56;3.97;;;0.80;;
4021;SDS011;2025;48.260;16.432;2022-07-17T11:03:28;2.08;;;1.05;;
4021;SDS011;2025;48.260;16.432;2022-07-17T11:06:05;2.10;;;0.82;;
4021;SDS011;2025;48.260;16.432;2022-07-17T11:08:40;1.40;;;0.70;;
4021;SDS011;2025;48.260;16.432;2022-07-17T11:13:36;10.98;;;1.42;;
4021;SDS011;2025;48.260;16.432;2022-07-17T11:16:03;4.95;;;1.13;;
4021;SDS011;2025;48.260;16.432;2022-07-17T11:18:30;8.50;;;1.15;;
4021;SDS011;2025;48.260;16.432;2022-07-17T11:20:58;1.52;;;1.00;;
4021;SDS011;2025;48.260;16.432;2022-07-17T11:23:27;2.55;;;0.85;;
4021;SDS011;2025;48.260;16.432;2022-07-17T11:25:59;7.80;;;1.10;;
4021;SDS011;2025;48.260;16.432;2022-07-17T11:28:28;7.13;;;1.10;;
4021;SDS011;2025;48.260;16.432;2022-07-17T11:30:58;1.38;;;0.90;;
4021;SDS011;2025;48.260;16.432;2022-07-17T11:33:26;1.27;;;0.70;;
4021;SDS011;2025;48.260;16.432;2022-07-17T11:35:53;0.70;;;0.70;;
4021;SDS011;2025;48.260;16.432;2022-07-17T11:38:24;2.60;;;1.10;;
4021;SDS011;2025;48.260;16.432;2022-07-17T11:40:51;3.90;;;0.80;;
4021;SDS011;2025;48.260;16.432;2022-07-17T11:43:19;3.10;;;0.90;;
4021;SDS011;2025;48.260;16.432;2022-07-17T11:45:47;2.10;;;0.80;;
4021;SDS011;2025;48.260;16.432;2022-07-17T11:48:15;1.30;;;1.20;;
4021;SDS011;2025;48.260;16.432;2022-07-17T11:50:51;3.50;;;1.10;;
4021;SDS011;2025;48.260;16.432;2022-07-17T11:53:29;4.68;;;1.20;;
4021;SDS011;2025;48.260;16.432;2022-07-17T11:55:57;1.60;;;0.90;;
4021;SDS011;2025;48.260;16.432;2022-07-17T11:58:24;1.67;;;0.98;;
4021;SDS011;2025;48.260;16.432;2022-07-17T12:00:59;1.02;;;0.82;;
4021;SDS011;2025;48.260;16.432;2022-07-17T12:03:29;1.67;;;1.00;;
4021;SDS011;2025;48.260;16.432;2022-07-17T12:05:56;1.90;;;1.00;;
4021;SDS011;2025;48.260;16.432;2022-07-17T12:08:23;3.17;;;0.90;;
4021;SDS011;2025;48.260;16.432;2022-07-17T12:10:59;5.95;;;0.90;;
4021;SDS011;2025;48.260;16.432;2022-07-17T12:13:36;3.00;;;0.90;;
4021;SDS011;2025;48.260;16.432;2022-07-17T12:16:20;0.73;;;0.73;;
4021;SDS011;2025;48.260;16.432;2022-07-17T12:19:01;3.08;;;1.10;;
4021;SDS011;2025;48.260;16.432;2022-07-17T12:21:31;4.40;;;0.98;;
4021;SDS011;2025;48.260;16.432;2022-07-17T12:24:00;3.95;;;1.10;;
4021;SDS011;2025;48.260;16.432;2022-07-17T12:26:29;3.38;;;1.00;;
4021;SDS011;2025;48.260;16.432;2022-07-17T12:28:59;5.25;;;1.40;;
4021;SDS011;2025;48.260;16.432;2022-07-17T12:31:31;5.00;;;0.98;;
4021;SDS011;2025;48.260;16.432;2022-07-17T12:33:58;2.42;;;0.80;;
4021;SDS011;2025;48.260;16.432;2022-07-17T12:36:27;5.00;;;0.93;;
4021;SDS011;2025;48.260;16.432;2022-07-17T12:38:54;7.35;;;0.90;;
4021;SDS011;2025;48.260;16.432;2022-07-17T12:41:21;3.35;;;0.90;;
4021;SDS011;2025;48.260;16.432;2022-07-17T12:43:48;2.50;;;0.82;;
4021;SDS011;2025;48.260;16.432;2022-07-17T12:46:16;1.85;;;0.98;;
4021;SDS011;2025;48.260;16.432;2022-07-17T12:48:43;1.80;;;0.85;;
4021;SDS011;2025;48.260;16.432;2022-07-17T12:51:11;4.25;;;0.90;;
4021;SDS011;2025;48.260;16.432;2022-07-17T12:53:40;5.10;;;1.00;;
4021;SDS011;2025;48.260;16.432;2022-07-17T12:56:09;3.17;;;0.93;;
4021;SDS011;2025;48.260;16.432;2022-07-17T12:58:39;6.63;;;0.70;;
4021;SDS011;2025;48.260;16.432;2022-07-17T13:01:06;2.55;;;0.77;;
4021;SDS011;2025;48.260;16.432;2022-07-17T13:03:33;1.48;;;0.80;;
4021;SDS011;2025;48.260;16.432;2022-07-17T13:06:00;1.50;;;0.85;;
4021;SDS011;2025;48.260;16.432;2022-07-17T13:08:28;5.82;;;1.00;;
4021;SDS011;2025;48.260;16.432;2022-07-17T13:10:57;5.35;;;0.90;;
4021;SDS011;2025;48.260;16.432;2022-07-17T13:13:24;5.18;;;1.00;;
4021;SDS011;2025;48.260;16.432;2022-07-17T13:15:51;1.45;;;0.95;;
4021;SDS011;2025;48.260;16.432;2022-07-17T13:18:18;1.17;;;1.08;;
4021;SDS011;2025;48.260;16.432;2022-07-17T13:20:47;1.45;;;0.90;;
4021;SDS011;2025;48.260;16.432;2022-07-17T13:23:14;5.47;;;1.20;;
4021;SDS011;2025;48.260;16.432;2022-07-17T13:25:41;3.10;;;0.90;;
4021;SDS011;2025;48.260;16.432;2022-07-17T13:28:11;3.05;;;1.05;;
4021;SDS011;2025;48.260;16.432;2022-07-17T13:30:38;3.15;;;0.90;;
4021;SDS011;2025;48.260;16.432;2022-07-17T13:33:05;2.78;;;0.90;;
4021;SDS011;2025;48.260;16.432;2022-07-17T13:35:32;5.32;;;0.88;;
4021;SDS011;2025;48.260;16.432;2022-07-17T13:37:59;3.08;;;0.93;;
4021;SDS011;2025;48.260;16.432;2022-07-17T13:40:28;4.75;;;1.30;;
4021;SDS011;2025;48.260;16.432;2022-07-17T13:42:55;3.00;;;0.73;;
4021;SDS011;2025;48.260;16.432;2022-07-17T13:45:24;0.82;;;0.82;;
4021;SDS011;2025;48.260;16.432;2022-07-17T13:47:51;2.45;;;0.73;;
4021;SDS011;2025;48.260;16.432;2022-07-17T13:50:18;2.05;;;1.00;;
4021;SDS011;2025;48.260;16.432;2022-07-17T13:52:45;5.28;;;0.80;;
4021;SDS011;2025;48.260;16.432;2022-07-17T13:55:12;2.33;;;0.90;;
4021;SDS011;2025;48.260;16.432;2022-07-17T13:57:40;2.03;;;1.17;;
4021;SDS011;2025;48.260;16.432;2022-07-17T14:00:07;0.95;;;0.80;;
4021;SDS011;2025;48.260;16.432;2022-07-17T14:02:37;2.80;;;1.00;;
4021;SDS011;2025;48.260;16.432;2022-07-17T14:05:05;7.85;;;1.08;;
4021;SDS011;2025;48.260;16.432;2022-07-17T14:07:34;5.50;;;0.75;;
4021;SDS011;2025;48.260;16.432;2022-07-17T14:10:02;4.80;;;1.00;;
4021;SDS011;2025;48.260;16.432;2022-07-17T14:12:30;2.85;;;0.98;;
4021;SDS011;2025;48.260;16.432;2022-07-17T14:14:57;2.78;;;0.80;;
4021;SDS011;2025;48.260;16.432;2022-07-17T14:17:24;1.40;;;0.80;;
4021;SDS011;2025;48.260;16.432;2022-07-17T14:19:53;2.63;;;0.93;;
4021;SDS011;2025;48.260;16.432;2022-07-17T14:22:19;5.82;;;1.10;;
4021;SDS011;2025;48.260;16.432;2022-07-17T14:24:46;0.82;;;0.68;;
4021;SDS011;2025;48.260;16.432;2022-07-17T14:27:13;1.20;;;0.82;;
4021;SDS011;2025;48.260;16.432;2022-07-17T14:29:40;3.78;;;0.85;;
4021;SDS011;2025;48.260;16.432;2022-07-17T14:32:07;3.45;;;0.88;;
4021;SDS011;2025;48.260;16.432;2022-07-17T14:34:34;4.40;;;1.00;;
4021;SDS011;2025;48.260;16.432;2022-07-17T14:37:03;1.95;;;1.00;;
4021;SDS011;2025;48.260;16.432;2022-07-17T14:39:35;3.15;;;0.98;;
4021;SDS011;2025;48.260;16.432;2022-07-17T14:42:05;3.65;;;1.00;;
4021;SDS011;2025;48.260;16.432;2022-07-17T14:44:32;0.88;;;0.80;;
4021;SDS011;2025;48.260;16.432;2022-07-17T14:46:59;1.48;;;0.90;;
4021;SDS011;2025;48.260;16.432;2022-07-17T14:49:27;1.90;;;0.90;;
4021;SDS011;2025;48.260;16.432;2022-07-17T14:51:54;1.73;;;0.90;;
4021;SDS011;2025;48.260;16.432;2022-07-17T14:54:22;4.47;;;1.00;;
4021;SDS011;2025;48.260;16.432;2022-07-17T14:56:49;3.50;;;0.80;;
4021;SDS011;2025;48.260;16.432;2022-07-17T14:59:16;2.63;;;1.05;;
4021;SDS011;2025;48.260;16.432;2022-07-17T15:01:43;3.35;;;1.00;;
4021;SDS011;2025;48.260;16.432;2022-07-17T15:04:10;4.30;;;1.00;;
4021;SDS011;2025;48.260;16.432;2022-07-17T15:06:38;1.65;;;0.90;;
4021;SDS011;2025;48.260;16.432;2022-07-17T15:09:06;5.68;;;0.90;;